createdAt,value
2022-11-20T00:01:24.597Z,4.10
2022-11-20T00:04:12.861Z,4.20
2022-11-20T00:06:59.821Z,4.47
2022-11-20T00:09:46.754Z,4.50
2022-11-20T00:12:34.016Z,3.73
2022-11-20T00:15:20.964Z,4.27
2022-11-20T00:18:07.979Z,4.33
2022-11-20T00:20:55.056Z,3.80
2022-11-20T00:23:42.429Z,3.90
2022-11-20T00:26:29.900Z,3.67
2022-11-20T00:29:16.964Z,4.23
2022-11-20T00:32:03.988Z,3.93
2022-11-20T00:34:50.986Z,4.40
2022-11-20T00:37:37.902Z,4.33
2022-11-20T00:40:24.850Z,4.63
2022-11-20T00:43:12.303Z,4.63
2022-11-20T00:46:08.175Z,4.67
2022-11-20T00:48:55.385Z,5.00
2022-11-20T00:51:42.319Z,4.30
2022-11-20T00:54:29.334Z,4.50
2022-11-20T00:57:16.286Z,5.13
2022-11-20T01:00:04.009Z,4.30
2022-11-20T01:02:50.954Z,4.80
2022-11-20T01:05:37.857Z,4.80
2022-11-20T01:08:24.785Z,4.23
2022-11-20T01:11:17.991Z,4.50
2022-11-20T01:14:08.258Z,4.47
2022-11-20T01:16:55.230Z,4.13
2022-11-20T01:19:42.175Z,4.50
2022-11-20T01:22:29.115Z,4.13
2022-11-20T01:25:16.086Z,3.97
2022-11-20T01:28:03.189Z,4.47
2022-11-20T01:30:50.140Z,4.27
2022-11-20T01:33:37.087Z,4.70
2022-11-20T01:36:26.249Z,4.50
2022-11-20T01:39:19.196Z,4.40
2022-11-20T01:42:25.301Z,4.27
2022-11-20T01:46:03.797Z,4.30
2022-11-20T01:49:11.806Z,4.10
2022-11-20T01:52:04.156Z,4.23
2022-11-20T01:55:00.841Z,4.20
2022-11-20T01:57:49.260Z,4.17
2022-11-20T02:00:36.372Z,4.33
2022-11-20T02:03:23.706Z,4.53
2022-11-20T02:06:28.388Z,4.33
2022-11-20T02:09:16.192Z,4.57
2022-11-20T02:12:04.444Z,4.60
2022-11-20T02:14:51.400Z,4.87
2022-11-20T02:17:39.140Z,4.17
2022-11-20T02:20:26.537Z,4.97
2022-11-20T02:23:25.477Z,4.63
2022-11-20T02:26:15.266Z,4.57
2022-11-20T02:29:04.018Z,5.03
2022-11-20T02:31:52.400Z,5.03
2022-11-20T02:34:39.306Z,5.10
2022-11-20T02:37:35.603Z,4.90
2022-11-20T02:40:23.024Z,4.73
2022-11-20T02:43:10.696Z,4.63
2022-11-20T02:45:57.624Z,4.97
2022-11-20T02:48:44.594Z,5.07
2022-11-20T02:51:32.670Z,5.60
2022-11-20T02:54:19.736Z,4.90
2022-11-20T02:57:06.699Z,4.83
2022-11-20T02:59:53.639Z,4.90
2022-11-20T03:02:40.637Z,5.13
2022-11-20T03:05:27.579Z,5.10
2022-11-20T03:08:14.498Z,5.40
2022-11-20T03:11:07.088Z,5.00
2022-11-20T03:13:53.992Z,5.33
2022-11-20T03:16:41.169Z,5.70
2022-11-20T03:19:28.124Z,5.63
2022-11-20T03:22:15.095Z,5.33
2022-11-20T03:25:02.194Z,5.00
2022-11-20T03:27:49.109Z,6.90
2022-11-20T03:30:36.143Z,5.80
2022-11-20T03:33:23.092Z,5.33
2022-11-20T03:36:13.038Z,5.63
2022-11-20T03:39:00.234Z,5.50
2022-11-20T03:41:47.317Z,5.70
2022-11-20T03:44:34.262Z,5.37
2022-11-20T03:47:21.582Z,5.37
2022-11-20T03:50:09.731Z,6.00
2022-11-20T03:52:56.663Z,5.50
2022-11-20T03:55:43.891Z,5.10
2022-11-20T03:58:30.818Z,5.43
2022-11-20T04:01:35.819Z,5.07
2022-11-20T04:04:22.767Z,5.40
2022-11-20T04:07:09.880Z,5.23
2022-11-20T04:09:56.900Z,5.23
2022-11-20T04:12:43.850Z,5.40
2022-11-20T04:15:34.310Z,5.33
2022-11-20T04:18:24.059Z,5.43
2022-11-20T04:21:11.700Z,5.33
2022-11-20T04:23:59.219Z,5.80
2022-11-20T04:26:46.162Z,5.37
2022-11-20T04:29:33.077Z,5.57
2022-11-20T04:32:19.999Z,6.00
2022-11-20T04:35:07.188Z,5.23
2022-11-20T04:37:54.090Z,5.70
2022-11-20T04:40:41.065Z,5.10
2022-11-20T04:43:28.103Z,5.13
2022-11-20T04:46:15.249Z,4.93
2022-11-20T04:49:02.204Z,5.13
2022-11-20T04:51:49.137Z,5.60
2022-11-20T04:54:36.028Z,4.60
2022-11-20T04:57:23.037Z,4.97
2022-11-20T05:00:10.801Z,5.43
2022-11-20T05:02:57.935Z,5.43
2022-11-20T05:05:44.852Z,4.97
2022-11-20T05:08:32.639Z,5.07
2022-11-20T05:11:21.705Z,4.93
2022-11-20T05:14:08.636Z,5.00
2022-11-20T05:16:55.686Z,5.07
2022-11-20T05:19:42.607Z,5.17
2022-11-20T05:22:29.541Z,5.00
2022-11-20T05:25:16.554Z,4.87
2022-11-20T05:28:03.588Z,4.57
2022-11-20T05:30:51.214Z,4.30
2022-11-20T05:33:40.356Z,4.70
2022-11-20T05:36:27.320Z,4.90
2022-11-20T05:39:14.260Z,5.13
2022-11-20T05:42:19.736Z,4.63
2022-11-20T05:45:07.226Z,4.57
2022-11-20T05:47:54.157Z,5.10
2022-11-20T05:50:41.056Z,4.90
2022-11-20T05:53:28.163Z,5.10
2022-11-20T05:56:18.223Z,4.73
2022-11-20T05:59:05.153Z,4.60
2022-11-20T06:01:52.167Z,4.87
2022-11-20T06:04:39.098Z,6.20
2022-11-20T06:07:26.429Z,5.23
2022-11-20T06:10:13.410Z,4.90
2022-11-20T06:13:00.348Z,5.33
2022-11-20T06:15:51.414Z,5.03
2022-11-20T06:18:38.404Z,5.70
2022-11-20T06:21:25.368Z,5.30
2022-11-20T06:24:12.744Z,4.87
2022-11-20T06:26:59.660Z,5.40
2022-11-20T06:29:46.573Z,5.47
2022-11-20T06:32:34.468Z,4.80
2022-11-20T06:35:21.490Z,5.13
2022-11-20T06:38:08.509Z,4.73
2022-11-20T06:40:55.873Z,5.13
2022-11-20T06:43:43.565Z,5.03
2022-11-20T06:46:30.652Z,4.27
2022-11-20T06:49:17.595Z,5.40
2022-11-20T06:52:05.065Z,4.53
2022-11-20T06:54:51.948Z,5.03
2022-11-20T06:57:38.865Z,5.07
2022-11-20T07:00:25.954Z,4.60
2022-11-20T07:03:13.908Z,4.80
2022-11-20T07:06:02.316Z,5.73
2022-11-20T07:08:52.251Z,5.00
2022-11-20T07:11:39.183Z,5.40
2022-11-20T07:14:26.201Z,5.07
2022-11-20T07:17:13.619Z,5.20
2022-11-20T07:20:00.559Z,5.60
2022-11-20T07:22:47.493Z,5.47
2022-11-20T07:25:34.501Z,5.83
2022-11-20T07:28:21.456Z,4.93
2022-11-20T07:31:08.561Z,5.13
2022-11-20T07:33:55.546Z,5.67
2022-11-20T07:36:42.551Z,5.53
2022-11-20T07:39:29.467Z,5.93
2022-11-20T07:42:16.508Z,5.83
2022-11-20T07:45:03.518Z,5.37
2022-11-20T07:47:50.999Z,5.50
2022-11-20T07:50:37.937Z,5.03
2022-11-20T07:53:25.202Z,5.37
2022-11-20T07:56:12.176Z,5.43
2022-11-20T07:58:59.085Z,5.23
2022-11-20T08:01:46.095Z,5.50
2022-11-20T08:04:34.114Z,5.30
2022-11-20T08:07:21.080Z,5.37
2022-11-20T08:10:10.291Z,5.63
2022-11-20T08:13:16.095Z,5.00
2022-11-20T08:16:03.151Z,5.30
2022-11-20T08:18:50.572Z,5.50
2022-11-20T08:21:38.535Z,5.73
2022-11-20T08:24:27.268Z,5.60
2022-11-20T08:27:14.170Z,5.47
2022-11-20T08:30:01.092Z,5.07
2022-11-20T08:32:48.038Z,5.20
2022-11-20T08:35:36.560Z,5.70
2022-11-20T08:38:23.499Z,5.03
2022-11-20T08:41:26.669Z,5.20
2022-11-20T08:44:13.640Z,5.57
2022-11-20T08:47:01.711Z,5.57
2022-11-20T08:49:48.660Z,5.57
2022-11-20T08:52:39.679Z,5.30
2022-11-20T08:55:26.889Z,5.27
2022-11-20T08:58:13.803Z,5.50
2022-11-20T09:01:00.833Z,5.87
2022-11-20T09:03:48.282Z,6.07
2022-11-20T09:06:35.239Z,5.27
2022-11-20T09:09:22.387Z,5.83
2022-11-20T09:12:09.544Z,5.47
2022-11-20T09:14:56.479Z,5.10
2022-11-20T09:17:43.685Z,5.70
2022-11-20T09:20:31.377Z,5.67
2022-11-20T09:23:18.958Z,5.00
2022-11-20T09:26:08.268Z,5.23
2022-11-20T09:28:58.092Z,5.20
2022-11-20T09:31:45.377Z,4.67
2022-11-20T09:34:33.082Z,5.23
2022-11-20T09:37:20.309Z,5.20
2022-11-20T09:40:18.234Z,5.37
2022-11-20T09:43:43.896Z,5.20
2022-11-20T09:47:15.371Z,5.33
2022-11-20T09:50:20.691Z,5.03
2022-11-20T09:53:36.187Z,4.83
2022-11-20T09:56:24.128Z,5.40
2022-11-20T09:59:39.180Z,5.03
2022-11-20T10:02:41.936Z,5.60
2022-11-20T10:05:34.836Z,4.50
2022-11-20T10:08:41.581Z,4.87
2022-11-20T10:11:44.879Z,5.27
2022-11-20T10:14:53.350Z,5.17
2022-11-20T10:18:10.206Z,4.73
2022-11-20T10:21:30.648Z,5.53
2022-11-20T10:24:43.832Z,4.60
2022-11-20T10:27:58.076Z,5.40
2022-11-20T10:30:47.761Z,5.93
2022-11-20T10:34:04.896Z,6.13
2022-11-20T10:36:57.274Z,5.90
2022-11-20T10:39:54.543Z,5.13
2022-11-20T10:42:56.987Z,4.00
2022-11-20T10:46:04.104Z,4.27
2022-11-20T10:48:51.843Z,4.40
2022-11-20T10:51:49.977Z,4.77
2022-11-20T10:54:57.966Z,4.57
2022-11-20T10:57:58.400Z,4.37
2022-11-20T11:00:45.609Z,4.30
2022-11-20T11:03:33.574Z,4.50
2022-11-20T11:06:32.919Z,4.30
2022-11-20T11:09:33.049Z,4.20
2022-11-20T11:12:22.577Z,4.17
2022-11-20T11:15:16.244Z,4.07
2022-11-20T11:18:03.638Z,4.20
2022-11-20T11:20:55.535Z,4.20
2022-11-20T11:23:44.239Z,4.27
2022-11-20T11:26:31.589Z,3.77
2022-11-20T11:29:19.173Z,3.70
2022-11-20T11:32:13.717Z,3.63
2022-11-20T11:35:02.508Z,3.40
2022-11-20T11:37:50.001Z,3.60
2022-11-20T11:40:39.103Z,3.40
2022-11-20T11:43:48.108Z,3.60
2022-11-20T11:46:37.873Z,3.20
2022-11-20T11:49:25.532Z,3.17
2022-11-20T11:52:23.521Z,3.47
2022-11-20T11:55:32.523Z,3.67
2022-11-20T11:58:44.906Z,3.30
2022-11-20T12:01:37.785Z,3.20
2022-11-20T12:04:45.196Z,3.13
2022-11-20T12:07:46.662Z,4.00
2022-11-20T12:11:08.302Z,3.87
2022-11-20T12:14:04.168Z,3.10
2022-11-20T12:16:53.722Z,3.60
2022-11-20T12:19:41.676Z,3.20
2022-11-20T12:22:42.067Z,3.13
2022-11-20T12:25:33.784Z,3.40
2022-11-20T12:28:38.271Z,3.20
2022-11-20T12:31:45.591Z,3.17
2022-11-20T12:34:49.555Z,2.30
2022-11-20T12:37:45.764Z,2.43
2022-11-20T12:40:44.825Z,2.27
2022-11-20T12:44:21.850Z,2.50
2022-11-20T12:47:22.835Z,2.20
2022-11-20T12:50:15.585Z,2.30
2022-11-20T12:53:30.815Z,2.00
2022-11-20T12:56:24.339Z,2.00
2022-11-20T12:59:17.472Z,2.10
2022-11-20T13:02:24.094Z,2.20
2022-11-20T13:05:22.622Z,2.10
2022-11-20T13:08:20.988Z,2.20
2022-11-20T13:11:34.413Z,2.00
2022-11-20T13:14:34.942Z,2.20
2022-11-20T13:17:39.646Z,1.97
2022-11-20T13:20:27.682Z,2.57
2022-11-20T13:23:26.112Z,2.37
2022-11-20T13:26:22.843Z,2.43
2022-11-20T13:29:18.587Z,2.43
2022-11-20T13:32:20.809Z,2.43
2022-11-20T13:35:10.127Z,2.10
2022-11-20T13:38:07.877Z,3.03
2022-11-20T13:41:00.323Z,2.60
2022-11-20T13:43:48.712Z,2.30
2022-11-20T13:46:45.410Z,2.37
2022-11-20T13:49:49.110Z,2.53
2022-11-20T13:53:02.429Z,2.63
2022-11-20T13:55:59.942Z,2.57
2022-11-20T13:59:15.533Z,2.20
2022-11-20T14:02:02.786Z,2.43
2022-11-20T14:04:53.432Z,2.67
2022-11-20T14:07:43.132Z,2.37
2022-11-20T14:10:32.292Z,2.20
2022-11-20T14:13:21.006Z,2.37
2022-11-20T14:16:10.065Z,2.20
2022-11-20T14:18:58.889Z,2.50
2022-11-20T14:21:46.847Z,2.67
2022-11-20T14:24:34.045Z,2.90
2022-11-20T14:27:22.296Z,2.60
2022-11-20T14:30:21.489Z,2.50
2022-11-20T14:33:11.666Z,2.97
2022-11-20T14:35:59.237Z,2.80
2022-11-20T14:38:46.936Z,2.50
2022-11-20T14:41:33.908Z,2.50
2022-11-20T14:44:28.629Z,2.40
2022-11-20T14:47:21.154Z,2.30
2022-11-20T14:50:18.691Z,2.67
2022-11-20T14:53:05.795Z,2.53
2022-11-20T14:56:01.952Z,2.80
2022-11-20T14:58:59.433Z,2.67
2022-11-20T15:01:57.932Z,2.63
2022-11-20T15:04:57.901Z,2.77
2022-11-20T15:07:51.547Z,2.80
2022-11-20T15:10:39.188Z,2.60
2022-11-20T15:13:27.627Z,2.83
2022-11-20T15:16:25.543Z,3.07
2022-11-20T15:19:19.145Z,2.43
2022-11-20T15:22:14.068Z,2.70
2022-11-20T15:25:01.052Z,3.00
2022-11-20T15:27:52.365Z,2.77
2022-11-20T15:30:41.470Z,2.80
2022-11-20T15:33:28.651Z,2.70
2022-11-20T15:36:15.648Z,2.90
2022-11-20T15:39:03.495Z,2.90
2022-11-20T15:41:50.430Z,2.93
2022-11-20T15:44:37.555Z,2.60
2022-11-20T15:47:29.757Z,3.17
2022-11-20T15:50:18.639Z,2.90
2022-11-20T15:53:06.012Z,3.17
2022-11-20T15:55:53.172Z,2.50
2022-11-20T15:58:40.797Z,2.70
2022-11-20T16:01:27.801Z,3.00
2022-11-20T16:04:17.067Z,2.27
2022-11-20T16:07:04.105Z,3.30
2022-11-20T16:09:51.114Z,2.77
2022-11-20T16:12:56.579Z,2.67
2022-11-20T16:15:53.453Z,2.93
2022-11-20T16:18:40.403Z,3.43
2022-11-20T16:21:33.376Z,3.03
2022-11-20T16:24:20.381Z,3.50
2022-11-20T16:27:07.360Z,2.80
2022-11-20T16:29:54.292Z,3.20
2022-11-20T16:32:41.237Z,3.60
2022-11-20T16:35:30.048Z,4.13
2022-11-20T16:38:17.007Z,3.17
2022-11-20T16:41:04.761Z,3.37
2022-11-20T16:43:54.552Z,3.70
2022-11-20T16:46:41.491Z,3.83
2022-11-20T16:49:28.477Z,3.97
2022-11-20T16:52:15.383Z,3.80
2022-11-20T16:55:02.439Z,4.10
2022-11-20T16:57:49.442Z,3.43
2022-11-20T17:00:37.848Z,4.03
2022-11-20T17:03:24.762Z,4.13
2022-11-20T17:06:16.686Z,3.70
2022-11-20T17:09:04.514Z,4.87
2022-11-20T17:11:51.492Z,4.50
2022-11-20T17:14:38.457Z,3.70
2022-11-20T17:17:25.441Z,4.60
2022-11-20T17:20:12.399Z,4.17
2022-11-20T17:22:59.632Z,3.80
2022-11-20T17:25:46.566Z,4.47
2022-11-20T17:28:34.581Z,4.37
2022-11-20T17:31:21.578Z,4.00
2022-11-20T17:34:11.302Z,3.90
2022-11-20T17:36:58.255Z,3.87
2022-11-20T17:39:45.254Z,4.37
2022-11-20T17:42:36.658Z,4.43
2022-11-20T17:45:23.776Z,3.97
2022-11-20T17:48:11.636Z,4.90
2022-11-20T17:51:03.612Z,3.87
2022-11-20T17:53:53.232Z,4.37
2022-11-20T17:56:58.963Z,3.90
2022-11-20T17:59:45.871Z,4.40
2022-11-20T18:02:32.771Z,4.40
2022-11-20T18:05:19.750Z,4.30
2022-11-20T18:08:06.659Z,4.70
2022-11-20T18:10:53.570Z,4.60
2022-11-20T18:13:59.613Z,4.50
2022-11-20T18:16:51.763Z,4.50
2022-11-20T18:19:51.595Z,4.20
2022-11-20T18:22:48.246Z,4.70
2022-11-20T18:25:35.161Z,4.23
2022-11-20T18:28:23.974Z,4.40
2022-11-20T18:31:11.952Z,4.07
2022-11-20T18:33:59.090Z,4.40
2022-11-20T18:36:46.074Z,3.87
2022-11-20T18:39:33.036Z,4.50
2022-11-20T18:42:38.692Z,4.83
2022-11-20T18:45:25.698Z,4.07
2022-11-20T18:48:12.624Z,4.37
2022-11-20T18:51:11.815Z,3.67
2022-11-20T18:53:58.731Z,4.20
2022-11-20T18:56:45.711Z,4.10
2022-11-20T18:59:32.955Z,3.83
2022-11-20T19:02:20.738Z,4.07
2022-11-20T19:05:07.894Z,4.47
2022-11-20T19:07:54.852Z,4.90
2022-11-20T19:10:41.968Z,4.93
2022-11-20T19:13:31.140Z,4.87
2022-11-20T19:16:20.229Z,4.63
2022-11-20T19:19:07.399Z,4.60
2022-11-20T19:21:54.352Z,4.77
2022-11-20T19:24:41.404Z,4.93
2022-11-20T19:27:28.353Z,4.67
2022-11-20T19:30:15.508Z,5.23
2022-11-20T19:33:02.420Z,4.77
2022-11-20T19:35:50.672Z,5.23
2022-11-20T19:38:41.486Z,5.10
2022-11-20T19:41:32.528Z,5.87
2022-11-20T19:44:19.627Z,5.90
2022-11-20T19:47:11.558Z,5.97
2022-11-20T19:50:02.296Z,5.67
2022-11-20T19:52:51.948Z,5.47
2022-11-20T19:55:43.108Z,5.23
2022-11-20T19:58:30.870Z,5.13
2022-11-20T20:01:20.977Z,5.27
2022-11-20T20:04:07.995Z,6.20
2022-11-20T20:06:55.280Z,6.83
2022-11-20T20:09:43.009Z,10.60
2022-11-20T20:12:29.983Z,7.63
2022-11-20T20:15:16.964Z,7.37
2022-11-20T20:18:03.979Z,6.40
2022-11-20T20:20:52.921Z,6.73
2022-11-20T20:23:40.575Z,6.43
2022-11-20T20:26:30.001Z,5.87
2022-11-20T20:29:20.517Z,6.00
2022-11-20T20:32:07.482Z,6.53
2022-11-20T20:34:54.420Z,6.87
2022-11-20T20:37:41.581Z,6.30
2022-11-20T20:40:28.727Z,6.03
2022-11-20T20:43:16.558Z,6.03
2022-11-20T20:46:03.526Z,5.77
2022-11-20T20:48:54.340Z,5.80
2022-11-20T20:51:41.514Z,6.33
2022-11-20T20:54:34.101Z,6.03
2022-11-20T20:57:25.169Z,4.90
2022-11-20T21:00:12.407Z,5.43
2022-11-20T21:02:59.421Z,5.23
2022-11-20T21:05:57.069Z,5.17
2022-11-20T21:08:44.768Z,5.17
2022-11-20T21:11:31.923Z,5.13
2022-11-20T21:14:18.983Z,5.03
2022-11-20T21:17:07.730Z,5.07
2022-11-20T21:19:57.786Z,5.70
2022-11-20T21:22:44.685Z,5.40
2022-11-20T21:25:31.658Z,5.13
2022-11-20T21:28:18.666Z,5.20
2022-11-20T21:31:10.870Z,5.13
2022-11-20T21:33:58.586Z,5.37
2022-11-20T21:36:46.195Z,5.70
2022-11-20T21:39:33.115Z,5.27
2022-11-20T21:42:20.189Z,7.40
2022-11-20T21:45:07.664Z,7.50
2022-11-20T21:47:54.664Z,8.47
2022-11-20T21:50:41.644Z,7.03
2022-11-20T21:53:28.981Z,10.43
2022-11-20T21:56:20.486Z,15.90
2022-11-20T21:59:12.134Z,33.47
2022-11-20T22:01:59.105Z,9.60
2022-11-20T22:04:46.057Z,7.27
2022-11-20T22:07:33.088Z,6.50
2022-11-20T22:10:20.081Z,6.70
2022-11-20T22:13:25.536Z,6.70
2022-11-20T22:16:13.481Z,7.33
2022-11-20T22:19:01.000Z,7.10
2022-11-20T22:21:48.031Z,7.67
2022-11-20T22:24:35.008Z,6.17
2022-11-20T22:27:21.916Z,6.50
2022-11-20T22:30:09.174Z,6.83
2022-11-20T22:32:56.428Z,6.80
2022-11-20T22:35:43.388Z,6.87
2022-11-20T22:38:34.006Z,7.47
2022-11-20T22:41:27.224Z,7.33
2022-11-20T22:44:23.105Z,7.17
2022-11-20T22:47:11.522Z,7.13
2022-11-20T22:49:58.598Z,8.63
2022-11-20T22:52:45.484Z,8.40
2022-11-20T22:55:34.012Z,7.20
2022-11-20T22:58:21.075Z,7.87
2022-11-20T23:01:13.575Z,6.43
2022-11-20T23:04:02.906Z,6.43
2022-11-20T23:06:49.811Z,7.70
2022-11-20T23:09:36.720Z,8.40
2022-11-20T23:12:23.675Z,7.57
2022-11-20T23:15:11.013Z,6.30
2022-11-20T23:17:57.978Z,6.53
2022-11-20T23:20:44.963Z,7.07
2022-11-20T23:23:31.922Z,7.27
2022-11-20T23:26:20.630Z,7.20
2022-11-20T23:29:08.358Z,6.37
2022-11-20T23:31:55.354Z,6.60
2022-11-20T23:34:42.306Z,6.40
2022-11-20T23:37:29.256Z,6.43
2022-11-20T23:40:16.244Z,6.13
2022-11-20T23:43:15.310Z,6.57
2022-11-20T23:46:03.518Z,6.63
2022-11-20T23:48:50.467Z,6.47
2022-11-20T23:51:37.423Z,6.67
2022-11-20T23:54:24.541Z,5.90
2022-11-20T23:57:11.726Z,6.37
2022-11-20T23:59:58.679Z,5.83
